Time;durP1;ratioP1;P1;durP2;ratioP2;P2;SDS_P1;SDS_P2;PMS_P1;PMS_P2;Temp;Humidity;BMP_temperature;BMP_pressure;BME280_temperature;BME280_humidity;BME280_pressure;Samples;Min_cycle;Max_cycle;Signal;HPM_P1;HPM_P2
2021/10/16 00:01:00;;;;;;;12.00;6.20;;;10.30;75.40;;;;;;5036333;28;20499;-85
2021/10/16 00:03:26;;;;;;;15.37;6.80;;;10.20;76.30;;;;;;5036061;28;20745;-85
2021/10/16 00:05:52;;;;;;;11.27;6.05;;;10.10;76.90;;;;;;5049688;28;20194;-82
2021/10/16 00:08:18;;;;;;;15.00;6.45;;;10.10;77.20;;;;;;5038882;28;20299;-82
2021/10/16 00:10:44;;;;;;;17.60;6.57;;;10.10;77.50;;;;;;5056609;28;20553;-82
2021/10/16 00:13:10;;;;;;;19.33;6.00;;;10.10;77.60;;;;;;5043743;28;20202;-83
2021/10/16 00:15:35;;;;;;;20.77;6.47;;;10.10;77.40;;;;;;5034669;28;20730;-83
2021/10/16 00:18:01;;;;;;;17.07;6.20;;;10.10;77.40;;;;;;5052336;28;20422;-83
2021/10/16 00:20:27;;;;;;;17.07;6.40;;;10.20;77.30;;;;;;5035563;28;20209;-83
2021/10/16 00:22:53;;;;;;;13.60;6.47;;;10.10;77.20;;;;;;5035671;28;20178;-83
2021/10/16 00:25:18;;;;;;;11.80;5.80;;;10.10;77.40;;;;;;5034925;28;20194;-83
2021/10/16 00:27:44;;;;;;;20.83;7.80;;;10.10;77.50;;;;;;5035174;28;20209;-83
2021/10/16 00:30:10;;;;;;;17.43;6.60;;;10.10;77.70;;;;;;5035552;28;20174;-83
2021/10/16 00:32:36;;;;;;;13.10;6.03;;;10.40;77.70;;;;;;5053718;28;20184;-83
2021/10/16 00:35:02;;;;;;;10.13;5.70;;;10.50;77.10;;;;;;5051668;28;20820;-82
2021/10/16 00:37:28;;;;;;;18.55;6.88;;;10.60;76.40;;;;;;5045083;28;20215;-82
2021/10/16 00:39:55;;;;;;;18.60;9.17;;;10.60;75.90;;;;;;5056074;28;20231;-82
2021/10/16 00:42:21;;;;;;;22.23;7.00;;;10.70;75.60;;;;;;5059106;28;20510;-85
2021/10/16 00:44:47;;;;;;;13.50;5.70;;;10.80;74.90;;;;;;5058491;28;20292;-83
2021/10/16 00:47:13;;;;;;;16.23;6.40;;;10.90;74.80;;;;;;5041443;28;20212;-83
2021/10/16 00:49:39;;;;;;;17.60;6.23;;;11.00;74.40;;;;;;5037331;28;20182;-84
2021/10/16 00:52:06;;;;;;;21.13;7.60;;;11.00;74.10;;;;;;5039374;28;20387;-83
2021/10/16 00:54:32;;;;;;;15.77;5.60;;;11.00;74.10;;;;;;5050289;28;20256;-83
2021/10/16 00:57:00;;;;;;;18.40;7.23;;;11.00;74.00;;;;;;5052561;28;20178;-83
2021/10/16 00:59:26;;;;;;;18.55;5.68;;;11.00;74.00;;;;;;5052246;28;20416;-83
2021/10/16 01:01:52;;;;;;;15.55;6.53;;;11.10;73.80;;;;;;5050721;28;20273;-85
2021/10/16 01:04:18;;;;;;;11.73;6.00;;;11.00;73.50;;;;;;5068711;28;20228;-85
2021/10/16 01:06:44;;;;;;;10.65;5.45;;;11.00;73.70;;;;;;5038145;28;20456;-83
2021/10/16 01:09:10;;;;;;;14.00;6.50;;;10.80;74.00;;;;;;5040107;28;20662;-84
2021/10/16 01:11:40;;;;;;;12.50;5.90;;;10.60;74.60;;;;;;5054418;28;20180;-84
2021/10/16 01:14:12;;;;;;;14.32;5.95;;;10.70;75.00;;;;;;5035289;28;20263;-84
2021/10/16 01:16:41;;;;;;;10.88;5.63;;;10.90;74.70;;;;;;5033879;28;20235;-84
2021/10/16 01:19:14;;;;;;;10.55;6.90;;;11.10;74.20;;;;;;5035011;28;20278;-86
2021/10/16 01:21:59;;;;;;;14.32;6.65;;;11.10;73.70;;;;;;5034577;28;20178;-83
2021/10/16 01:24:25;;;;;;;14.38;6.85;;;10.90;73.10;;;;;;5036296;28;20229;-83
2021/10/16 01:26:51;;;;;;;12.50;6.53;;;10.60;73.70;;;;;;5034361;28;20213;-83
2021/10/16 01:29:21;;;;;;;15.82;7.75;;;10.40;74.70;;;;;;5036315;28;20223;-83
2021/10/16 01:31:47;;;;;;;10.07;5.45;;;10.50;75.30;;;;;;5036473;28;20320;-84
2021/10/16 01:34:13;;;;;;;10.70;6.55;;;10.70;75.20;;;;;;5040161;28;20197;-83
2021/10/16 01:36:40;;;;;;;9.20;5.80;;;10.80;74.70;;;;;;5054547;28;20642;-83
2021/10/16 01:39:06;;;;;;;15.32;5.85;;;11.00;74.10;;;;;;5056514;28;20169;-83
2021/10/16 01:41:32;;;;;;;13.83;6.70;;;11.00;73.40;;;;;;5053227;28;20177;-83
2021/10/16 01:43:58;;;;;;;12.13;6.23;;;11.10;73.10;;;;;;5035100;28;20522;-83
2021/10/16 01:46:23;;;;;;;17.50;6.00;;;11.20;72.70;;;;;;5039965;28;20202;-83
2021/10/16 01:48:49;;;;;;;13.63;5.37;;;11.20;72.60;;;;;;5036195;28;20181;-83
2021/10/16 01:51:18;;;;;;;16.37;6.10;;;11.30;72.50;;;;;;5018902;28;20280;-83
2021/10/16 01:53:47;;;;;;;13.00;5.45;;;11.30;72.00;;;;;;5036919;28;20681;-83
2021/10/16 01:56:13;;;;;;;10.85;5.13;;;11.30;72.00;;;;;;5039068;28;20186;-83
2021/10/16 01:58:39;;;;;;;13.33;6.20;;;11.20;72.00;;;;;;5042882;28;20177;-84
2021/10/16 02:01:04;;;;;;;8.97;4.57;;;11.10;72.30;;;;;;5054641;28;20262;-83
2021/10/16 02:03:30;;;;;;;19.03;5.50;;;10.80;72.90;;;;;;5037447;28;20582;-84
2021/10/16 02:05:56;;;;;;;17.93;5.50;;;10.80;73.20;;;;;;5037602;28;20173;-84
2021/10/16 02:08:22;;;;;;;13.80;4.70;;;10.80;73.60;;;;;;5037384;28;20208;-84
2021/10/16 02:10:47;;;;;;;9.77;5.40;;;11.00;73.50;;;;;;5055004;28;20170;-84
2021/10/16 02:13:13;;;;;;;14.00;4.83;;;11.20;73.10;;;;;;5037578;28;20448;-83
2021/10/16 02:15:39;;;;;;;12.33;5.03;;;11.40;72.20;;;;;;5034964;28;20425;-83
2021/10/16 02:18:05;;;;;;;10.27;4.80;;;11.40;71.90;;;;;;5017498;28;20178;-83
2021/10/16 02:20:31;;;;;;;9.00;6.00;;;11.30;72.00;;;;;;5034291;28;20196;-83
2021/10/16 02:22:57;;;;;;;17.13;6.00;;;11.30;72.20;;;;;;5050271;28;20255;-83
2021/10/16 02:25:23;;;;;;;17.30;6.00;;;11.20;72.10;;;;;;5058879;28;20411;-84
2021/10/16 02:27:48;;;;;;;13.73;5.20;;;11.20;72.90;;;;;;5056642;28;20209;-84
2021/10/16 02:30:14;;;;;;;13.53;6.03;;;11.30;72.10;;;;;;5059648;28;20410;-83
2021/10/16 02:32:40;;;;;;;14.87;4.70;;;11.40;71.90;;;;;;5021497;28;20182;-84
2021/10/16 02:35:06;;;;;;;7.82;5.25;;;11.20;71.80;;;;;;5020488;28;20204;-84
2021/10/16 02:37:32;;;;;;;11.73;4.85;;;11.00;72.50;;;;;;5021423;28;20196;-84
2021/10/16 02:39:57;;;;;;;18.30;5.10;;;11.00;73.20;;;;;;5037496;28;20189;-84
2021/10/16 02:42:23;;;;;;;11.07;5.87;;;11.10;73.50;;;;;;5026407;28;20232;-84
2021/10/16 02:44:49;;;;;;;14.50;5.03;;;11.40;73.10;;;;;;5021044;28;20751;-84
2021/10/16 02:47:16;;;;;;;20.95;5.97;;;11.50;72.60;;;;;;5022491;28;20209;-85
2021/10/16 02:49:42;;;;;;;10.10;5.85;;;11.50;72.10;;;;;;5023706;28;20185;-84
2021/10/16 02:52:08;;;;;;;11.80;4.75;;;11.50;72.70;;;;;;5039910;28;20173;-84
2021/10/16 02:54:34;;;;;;;10.80;6.80;;;11.50;72.00;;;;;;5037626;28;20255;-83
2021/10/16 02:57:00;;;;;;;13.40;5.63;;;11.60;72.00;;;;;;5021223;28;20435;-84
2021/10/16 02:59:26;;;;;;;8.80;3.90;;;11.70;72.00;;;;;;5020361;28;20190;-84
2021/10/16 03:01:51;;;;;;;12.70;4.33;;;11.80;71.80;;;;;;5020665;28;20178;-84
2021/10/16 03:04:17;;;;;;;13.70;4.90;;;11.80;71.60;;;;;;5027838;28;20457;-84
2021/10/16 03:06:43;;;;;;;16.23;4.20;;;11.70;71.60;;;;;;5044004;28;20811;-83
2021/10/16 03:09:08;;;;;;;19.17;4.90;;;11.70;71.70;;;;;;5057608;28;20205;-84
2021/10/16 03:11:34;;;;;;;17.27;5.73;;;11.70;71.70;;;;;;5053510;28;20178;-84
2021/10/16 03:14:01;;;;;;;11.40;5.17;;;11.80;71.40;;;;;;5056643;28;20454;-83
2021/10/16 03:16:27;;;;;;;11.45;5.45;;;11.80;71.30;;;;;;5058423;28;20177;-84
2021/10/16 03:18:53;;;;;;;15.10;5.75;;;11.80;71.40;;;;;;5055465;28;20181;-84
2021/10/16 03:21:22;;;;;;;10.60;5.00;;;11.70;71.60;;;;;;5040891;28;20517;-85
2021/10/16 03:23:48;;;;;;;8.32;3.90;;;11.70;71.50;;;;;;5055175;28;20435;-85
2021/10/16 03:26:14;;;;;;;13.32;4.55;;;11.80;70.80;;;;;;5052002;28;20181;-85
2021/10/16 03:28:40;;;;;;;16.03;5.00;;;11.80;70.00;;;;;;5035810;28;20658;-85
2021/10/16 03:31:05;;;;;;;7.97;5.10;;;11.80;70.00;;;;;;5035668;28;20927;-84
2021/10/16 03:33:31;;;;;;;13.60;5.20;;;11.60;70.10;;;;;;5036223;28;20555;-84
2021/10/16 03:35:57;;;;;;;14.50;4.50;;;11.30;70.90;;;;;;5037909;28;20245;-84
2021/10/16 03:38:23;;;;;;;11.90;4.33;;;11.20;71.50;;;;;;5057057;28;20465;-84
2021/10/16 03:40:49;;;;;;;8.60;4.43;;;11.40;71.50;;;;;;5052060;28;20707;-84
2021/10/16 03:43:15;;;;;;;11.85;5.60;;;11.50;70.50;;;;;;5036550;28;20595;-84
2021/10/16 03:45:40;;;;;;;24.10;5.77;;;11.60;70.20;;;;;;5052165;28;20182;-84
2021/10/16 03:48:06;;;;;;;9.00;4.70;;;11.50;70.10;;;;;;5035702;28;20214;-84
2021/10/16 03:50:34;;;;;;;10.93;4.83;;;11.40;70.10;;;;;;5036074;28;20520;-85
2021/10/16 03:53:01;;;;;;;18.67;5.13;;;11.20;70.60;;;;;;5035007;28;20417;-84
2021/10/16 03:55:26;;;;;;;17.67;5.50;;;11.10;71.20;;;;;;5042752;28;20189;-84
2021/10/16 03:57:52;;;;;;;10.83;4.93;;;11.10;71.10;;;;;;5057072;28;20226;-84
2021/10/16 04:00:21;;;;;;;9.97;4.60;;;11.10;71.20;;;;;;5057374;28;20190;-84
2021/10/16 04:02:50;;;;;;;13.30;4.65;;;11.30;71.10;;;;;;5056934;28;20202;-84
2021/10/16 04:05:16;;;;;;;9.05;4.75;;;11.30;71.10;;;;;;5054041;28;20220;-84
2021/10/16 04:07:42;;;;;;;9.52;4.43;;;11.20;71.50;;;;;;5052745;28;20255;-84
2021/10/16 04:10:09;;;;;;;15.70;5.00;;;11.30;71.90;;;;;;5044454;28;20189;-84
2021/10/16 04:12:35;;;;;;;13.50;5.15;;;11.40;71.60;;;;;;5057889;28;20428;-84
2021/10/16 04:15:00;;;;;;;11.50;5.13;;;11.40;71.20;;;;;;5037536;28;20255;-85
2021/10/16 04:17:26;;;;;;;15.27;4.63;;;11.40;71.10;;;;;;5036891;28;20425;-83
2021/10/16 04:19:52;;;;;;;11.10;4.70;;;11.50;71.10;;;;;;5036631;28;20431;-83
2021/10/16 04:22:18;;;;;;;9.30;5.30;;;11.50;71.20;;;;;;5037099;28;20764;-83
2021/10/16 04:24:44;;;;;;;14.50;5.50;;;11.70;71.10;;;;;;5036931;28;20444;-83
2021/10/16 04:27:11;;;;;;;9.47;4.70;;;11.80;70.60;;;;;;5057157;28;20455;-83
2021/10/16 04:29:37;;;;;;;13.32;5.20;;;11.70;70.70;;;;;;5034323;28;20412;-84
2021/10/16 04:32:03;;;;;;;10.18;4.15;;;11.60;70.90;;;;;;5035779;28;20629;-84
2021/10/16 04:34:29;;;;;;;15.27;5.20;;;11.50;71.20;;;;;;5035699;28;20189;-84
2021/10/16 04:36:55;;;;;;;11.93;4.00;;;11.60;71.40;;;;;;5034483;28;20190;-84
2021/10/16 04:39:20;;;;;;;7.33;4.13;;;11.50;71.50;;;;;;5034566;28;20185;-84
2021/10/16 04:41:46;;;;;;;11.63;4.97;;;11.40;71.70;;;;;;5042019;28;20424;-84
2021/10/16 04:44:12;;;;;;;20.87;5.50;;;11.20;72.10;;;;;;5057827;28;20458;-84
2021/10/16 04:46:38;;;;;;;13.25;4.45;;;11.10;72.60;;;;;;5057278;28;20663;-85
2021/10/16 04:49:06;;;;;;;15.93;4.97;;;11.10;73.10;;;;;;5055545;28;20203;-84
2021/10/16 04:51:32;;;;;;;14.00;5.75;;;11.10;73.30;;;;;;5040160;28;20236;-83
2021/10/16 04:53:58;;;;;;;19.88;7.70;;;11.10;73.40;;;;;;5039280;28;20205;-84
2021/10/16 04:56:24;;;;;;;10.77;6.20;;;11.20;73.20;;;;;;5041445;28;20240;-84
2021/10/16 04:58:50;;;;;;;13.03;6.33;;;11.30;72.90;;;;;;5044890;28;20186;-84
2021/10/16 05:01:15;;;;;;;13.73;6.17;;;11.10;72.50;;;;;;5058037;28;20419;-84
2021/10/16 05:03:41;;;;;;;11.80;6.40;;;11.00;72.60;;;;;;5056389;28;20197;-85
2021/10/16 05:06:07;;;;;;;15.33;6.77;;;11.10;72.90;;;;;;5038414;28;20615;-85
2021/10/16 05:08:35;;;;;;;21.23;7.10;;;11.20;72.60;;;;;;5049200;28;20467;-84
2021/10/16 05:11:01;;;;;;;11.32;5.80;;;11.20;72.10;;;;;;5040410;28;20525;-84
2021/10/16 05:13:27;;;;;;;17.07;6.27;;;11.00;72.20;;;;;;5043098;28;20201;-83
2021/10/16 05:15:53;;;;;;;9.60;5.90;;;11.00;72.60;;;;;;5022219;28;20494;-83
2021/10/16 05:18:21;;;;;;;9.50;5.68;;;11.00;72.70;;;;;;5021957;28;20182;-83
2021/10/16 05:20:48;;;;;;;12.93;6.40;;;10.90;72.90;;;;;;5020922;28;20181;-83
2021/10/16 05:23:13;;;;;;;11.82;5.07;;;10.80;73.00;;;;;;5038428;28;20193;-85
2021/10/16 05:25:39;;;;;;;11.63;5.90;;;10.80;73.30;;;;;;5021055;28;20277;-85
2021/10/16 05:28:05;;;;;;;15.40;6.33;;;10.80;73.50;;;;;;5018780;28;20198;-85
2021/10/16 05:30:31;;;;;;;12.90;5.67;;;10.70;73.80;;;;;;5019708;28;20716;-85
2021/10/16 05:32:56;;;;;;;15.30;6.57;;;10.60;73.90;;;;;;5038099;28;20174;-86
2021/10/16 05:35:22;;;;;;;15.73;6.53;;;10.30;75.00;;;;;;5038264;28;20648;-85
2021/10/16 05:37:48;;;;;;;9.75;6.35;;;10.20;75.70;;;;;;5046638;28;20180;-85
2021/10/16 05:40:14;;;;;;;14.63;5.53;;;10.10;76.00;;;;;;5058651;28;20185;-84
2021/10/16 05:42:40;;;;;;;12.40;6.70;;;10.00;76.10;;;;;;5043841;28;20212;-85
2021/10/16 05:45:06;;;;;;;11.63;5.77;;;10.00;76.40;;;;;;5037025;28;20441;-85
2021/10/16 05:47:32;;;;;;;16.88;6.90;;;9.90;76.80;;;;;;5041075;28;20185;-84
2021/10/16 05:49:58;;;;;;;17.77;7.93;;;9.80;77.00;;;;;;5057791;28;20177;-86
2021/10/16 05:52:23;;;;;;;17.47;7.10;;;10.20;77.00;;;;;;5036308;28;20308;-85
2021/10/16 05:54:49;;;;;;;19.13;7.00;;;10.30;76.20;;;;;;5028613;28;20200;-84
2021/10/16 05:57:15;;;;;;;17.50;6.43;;;10.20;75.80;;;;;;5035965;28;20181;-84
2021/10/16 05:59:40;;;;;;;16.23;8.47;;;10.10;75.70;;;;;;5027169;28;20651;-84
2021/10/16 06:02:10;;;;;;;17.67;8.07;;;10.10;75.70;;;;;;5059700;28;20181;-83
2021/10/16 06:04:35;;;;;;;20.92;7.07;;;10.10;75.70;;;;;;5059846;28;20209;-83
2021/10/16 06:07:01;;;;;;;23.83;7.47;;;10.20;75.60;;;;;;5061292;28;20204;-83
2021/10/16 06:09:27;;;;;;;16.63;6.97;;;10.20;75.50;;;;;;5043464;28;20281;-83
2021/10/16 06:11:52;;;;;;;16.13;7.40;;;10.20;75.40;;;;;;5044801;28;20228;-83
2021/10/16 06:14:19;;;;;;;21.83;7.17;;;10.10;75.60;;;;;;5043283;28;20259;-83
2021/10/16 06:16:44;;;;;;;15.60;7.45;;;9.90;76.20;;;;;;5060426;28;20185;-83
2021/10/16 06:19:10;;;;;;;21.70;7.90;;;9.80;76.80;;;;;;5062367;28;20206;-83
2021/10/16 06:21:36;;;;;;;14.60;6.63;;;9.80;77.10;;;;;;5060645;28;20181;-83
2021/10/16 06:24:04;;;;;;;11.93;7.30;;;10.00;77.20;;;;;;5059636;28;20435;-83
2021/10/16 06:26:30;;;;;;;9.73;6.75;;;10.30;76.80;;;;;;5060210;28;20419;-83
2021/10/16 06:28:55;;;;;;;23.87;8.60;;;10.40;76.10;;;;;;5060006;28;20185;-83
2021/10/16 06:31:21;;;;;;;15.67;6.87;;;10.50;75.60;;;;;;5060133;28;20169;-82
2021/10/16 06:33:47;;;;;;;26.50;7.47;;;10.60;75.40;;;;;;5059446;28;20205;-82
2021/10/16 06:36:13;;;;;;;12.77;6.37;;;10.80;75.10;;;;;;5054993;28;20177;-84
2021/10/16 06:38:38;;;;;;;16.53;8.43;;;10.90;74.60;;;;;;5041237;28;20264;-84
2021/10/16 06:41:04;;;;;;;17.67;7.97;;;10.80;73.90;;;;;;5058055;28;20182;-85
2021/10/16 06:43:30;;;;;;;19.17;8.03;;;10.70;74.00;;;;;;5040928;28;20208;-84
2021/10/16 06:45:56;;;;;;;18.73;7.20;;;10.70;74.10;;;;;;5040197;28;20465;-84
2021/10/16 06:48:21;;;;;;;18.80;6.90;;;10.80;73.80;;;;;;5039016;28;20201;-83
2021/10/16 06:50:47;;;;;;;17.03;7.67;;;10.80;73.50;;;;;;5042531;28;20200;-83
2021/10/16 06:53:13;;;;;;;12.18;7.35;;;10.90;73.40;;;;;;5043062;28;20201;-83
2021/10/16 06:55:39;;;;;;;17.20;7.23;;;10.90;73.30;;;;;;5061295;28;20191;-82
2021/10/16 06:58:04;;;;;;;9.90;5.53;;;10.90;73.50;;;;;;5060759;28;20239;-83
2021/10/16 07:00:30;;;;;;;14.57;7.10;;;11.00;73.50;;;;;;5043868;28;20186;-83
2021/10/16 07:02:56;;;;;;;13.60;6.17;;;11.00;73.50;;;;;;5031400;28;20186;-83
2021/10/16 07:05:22;;;;;;;17.10;6.77;;;11.10;73.50;;;;;;5035077;28;20463;-83
2021/10/16 07:07:47;;;;;;;12.57;6.73;;;11.40;72.80;;;;;;5055200;28;20212;-83
2021/10/16 07:10:13;;;;;;;27.23;8.53;;;11.40;72.60;;;;;;5055842;28;20224;-83
2021/10/16 07:12:39;;;;;;;15.35;7.00;;;11.50;72.30;;;;;;5048193;28;20204;-83
2021/10/16 07:15:06;;;;;;;16.20;6.70;;;11.40;71.80;;;;;;5055101;28;20201;-83
2021/10/16 07:17:32;;;;;;;14.77;7.10;;;11.40;72.10;;;;;;5071092;28;20466;-83
2021/10/16 07:19:58;;;;;;;14.10;6.93;;;11.40;72.20;;;;;;5059630;28;20185;-83
2021/10/16 07:22:24;;;;;;;13.15;7.85;;;11.50;72.10;;;;;;5058496;28;20184;-83
2021/10/16 07:24:50;;;;;;;13.85;7.15;;;11.60;71.30;;;;;;5060655;28;20307;-83
2021/10/16 07:27:16;;;;;;;17.67;7.20;;;11.60;70.20;;;;;;5059850;28;20201;-83
2021/10/16 07:29:42;;;;;;;16.98;7.78;;;11.70;70.10;;;;;;5059889;28;20415;-83
2021/10/16 07:32:08;;;;;;;24.73;9.30;;;11.70;70.30;;;;;;5058991;28;20291;-83
2021/10/16 07:34:34;;;;;;;11.87;7.47;;;11.70;70.40;;;;;;5060696;28;20197;-83
2021/10/16 07:37:00;;;;;;;13.17;6.83;;;11.70;71.20;;;;;;5059264;28;20665;-83
2021/10/16 07:39:26;;;;;;;17.27;7.17;;;11.80;70.30;;;;;;5059670;28;20412;-83
2021/10/16 07:41:51;;;;;;;13.77;6.03;;;11.80;70.00;;;;;;5059866;28;20419;-83
2021/10/16 07:44:17;;;;;;;17.90;7.30;;;11.60;70.50;;;;;;5059186;28;20443;-83
2021/10/16 07:46:44;;;;;;;20.63;8.02;;;11.70;70.90;;;;;;5058427;28;20197;-83
2021/10/16 07:49:13;;;;;;;21.85;7.05;;;12.00;70.30;;;;;;5059726;28;20238;-83
2021/10/16 07:51:39;;;;;;;17.80;6.57;;;11.90;70.20;;;;;;5060705;28;20165;-83
2021/10/16 07:54:05;;;;;;;17.10;7.57;;;12.00;70.10;;;;;;5060854;28;20208;-83
2021/10/16 07:56:30;;;;;;;15.93;7.27;;;12.20;69.70;;;;;;5059780;28;20415;-83
2021/10/16 07:58:56;;;;;;;8.73;6.00;;;12.10;69.30;;;;;;5059852;28;20400;-83
2021/10/16 08:01:22;;;;;;;17.73;7.67;;;12.10;69.10;;;;;;5055911;28;20923;-83
2021/10/16 08:03:48;;;;;;;15.10;6.77;;;12.10;69.20;;;;;;5038761;28;20436;-84
2021/10/16 08:06:13;;;;;;;12.67;6.80;;;12.20;69.30;;;;;;5042528;28;20169;-83
2021/10/16 08:08:39;;;;;;;14.13;6.80;;;12.40;69.40;;;;;;5043344;28;20274;-83
2021/10/16 08:11:05;;;;;;;17.80;6.90;;;12.60;68.90;;;;;;5042017;28;20181;-83
2021/10/16 08:13:31;;;;;;;15.03;6.83;;;12.70;68.50;;;;;;5035508;28;20220;-82
2021/10/16 08:15:58;;;;;;;14.30;6.78;;;12.90;68.40;;;;;;5041684;28;20173;-83
2021/10/16 08:18:25;;;;;;;16.00;6.45;;;13.00;67.90;;;;;;5040504;28;20208;-83
2021/10/16 08:20:51;;;;;;;12.05;7.45;;;13.10;67.60;;;;;;5006122;28;20264;-83
2021/10/16 08:23:17;;;;;;;13.05;6.25;;;13.20;67.30;;;;;;5022145;28;20198;-84
2021/10/16 08:25:42;;;;;;;11.33;7.40;;;13.30;67.00;;;;;;5022510;28;20199;-83
2021/10/16 08:28:13;;;;;;;9.57;6.23;;;13.50;66.60;;;;;;5040932;28;20454;-83
2021/10/16 08:30:43;;;;;;;18.27;6.95;;;13.60;66.00;;;;;;5041849;28;20184;-83
2021/10/16 08:33:09;;;;;;;7.90;5.50;;;13.80;66.20;;;;;;5041361;28;20199;-83
2021/10/16 08:35:35;;;;;;;15.40;7.73;;;13.80;65.40;;;;;;5041110;28;20620;-83
2021/10/16 08:38:01;;;;;;;11.20;5.40;;;13.90;65.20;;;;;;5037628;28;20420;-83
2021/10/16 08:40:26;;;;;;;9.80;6.10;;;13.90;65.00;;;;;;5037722;28;20981;-83
2021/10/16 08:42:53;;;;;;;14.70;7.00;;;14.00;64.90;;;;;;5036733;28;20178;-83
2021/10/16 08:45:19;;;;;;;11.07;5.80;;;14.10;64.90;;;;;;5050798;28;20423;-83
2021/10/16 08:47:46;;;;;;;15.73;6.60;;;14.10;64.30;;;;;;5058117;28;20262;-83
2021/10/16 08:50:12;;;;;;;10.68;5.45;;;14.20;64.00;;;;;;5040756;28;20412;-83
2021/10/16 08:52:39;;;;;;;18.27;5.85;;;14.30;63.80;;;;;;5041018;28;20181;-83
2021/10/16 08:55:07;;;;;;;12.82;5.90;;;14.30;63.80;;;;;;5060304;28;20189;-83
2021/10/16 08:57:34;;;;;;;10.43;5.90;;;14.40;63.70;;;;;;5027851;28;20185;-83
2021/10/16 09:00:36;;;;;;;10.70;5.07;;;14.30;62.90;;;;;;5061006;28;20194;-83
2021/10/16 09:03:27;;;;;;;14.35;4.78;;;14.30;62.50;;;;;;5024270;28;20189;-83
2021/10/16 09:06:12;;;;;;;14.73;6.05;;;14.20;62.10;;;;;;5056513;28;20193;-82
2021/10/16 09:08:42;;;;;;;13.95;5.25;;;14.30;62.50;;;;;;5059324;28;20332;-83
2021/10/16 09:11:11;;;;;;;14.65;5.70;;;14.30;62.60;;;;;;5056924;28;20252;-83
2021/10/16 09:13:43;;;;;;;13.75;6.13;;;14.40;62.40;;;;;;5053617;28;20212;-84
2021/10/16 09:16:22;;;;;;;16.20;5.38;;;14.40;60.30;;;;;;5037974;28;20177;-84
2021/10/16 09:19:16;;;;;;;10.35;4.93;;;14.60;60.10;;;;;;5046652;28;20174;-84
2021/10/16 09:22:02;;;;;;;12.30;5.05;;;14.70;60.00;;;;;;5037677;28;20174;-83
2021/10/16 09:24:44;;;;;;;18.85;6.13;;;14.80;59.20;;;;;;5038303;28;20194;-84
2021/10/16 09:27:16;;;;;;;9.00;5.57;;;14.90;59.50;;;;;;5036176;28;20198;-83
2021/10/16 09:29:45;;;;;;;8.13;4.18;;;15.00;59.00;;;;;;5036285;28;20227;-84
2021/10/16 09:32:14;;;;;;;10.05;4.07;;;15.00;57.90;;;;;;5038835;28;20178;-83
2021/10/16 09:34:45;;;;;;;13.55;4.15;;;15.00;56.90;;;;;;5042607;28;20267;-84
2021/10/16 09:37:19;;;;;;;13.00;4.68;;;15.00;56.20;;;;;;5053443;28;20174;-83
2021/10/16 09:39:48;;;;;;;8.85;4.38;;;14.90;56.00;;;;;;5041173;28;20189;-83
2021/10/16 09:42:41;;;;;;;15.45;5.55;;;14.90;56.60;;;;;;5040985;28;20720;-84
2021/10/16 09:45:10;;;;;;;14.25;4.50;;;15.00;56.70;;;;;;5033388;28;20213;-83
2021/10/16 09:47:36;;;;;;;8.73;4.35;;;15.00;57.10;;;;;;5040130;28;20201;-83
2021/10/16 09:50:09;;;;;;;7.00;3.97;;;15.00;56.60;;;;;;5042442;28;20655;-83
2021/10/16 09:52:38;;;;;;;18.40;6.55;;;15.20;57.00;;;;;;5042492;28;20679;-84
2021/10/16 09:55:06;;;;;;;9.18;3.47;;;15.30;57.50;;;;;;5040497;28;20312;-84
2021/10/16 09:57:32;;;;;;;7.63;4.65;;;15.40;57.40;;;;;;5041050;28;20276;-83
2021/10/16 10:00:04;;;;;;;22.77;4.88;;;15.50;56.80;;;;;;5041528;28;20185;-84
2021/10/16 10:02:32;;;;;;;11.38;4.22;;;15.70;56.60;;;;;;5040491;28;20186;-83
2021/10/16 10:04:58;;;;;;;12.43;4.32;;;15.70;56.40;;;;;;5023235;28;20221;-84
2021/10/16 10:07:25;;;;;;;9.25;4.25;;;15.70;55.90;;;;;;5061803;28;20350;-84
2021/10/16 10:09:52;;;;;;;11.23;3.88;;;15.80;56.00;;;;;;5055914;28;20178;-84
2021/10/16 10:12:19;;;;;;;15.00;3.95;;;15.90;55.90;;;;;;5055031;28;20170;-84
2021/10/16 10:14:48;;;;;;;10.07;3.45;;;16.10;55.20;;;;;;5051192;28;20202;-83
2021/10/16 10:17:19;;;;;;;12.15;3.70;;;16.10;54.10;;;;;;5045047;28;20660;-83
2021/10/16 10:19:49;;;;;;;11.23;3.47;;;16.00;53.10;;;;;;5040427;28;20186;-83
2021/10/16 10:22:17;;;;;;;20.17;6.70;;;16.00;52.60;;;;;;5052865;28;20687;-83
2021/10/16 10:24:45;;;;;;;17.40;3.97;;;16.00;52.60;;;;;;5056003;28;20205;-83
2021/10/16 10:27:13;;;;;;;12.93;3.40;;;15.70;52.50;;;;;;5053917;28;20189;-83
2021/10/16 10:29:41;;;;;;;11.57;4.25;;;15.60;53.10;;;;;;5057642;28;20260;-83
2021/10/16 10:32:17;;;;;;;19.30;3.72;;;15.70;52.70;;;;;;5042378;28;20170;-83
2021/10/16 10:35:03;;;;;;;7.68;3.40;;;15.50;52.00;;;;;;5040147;28;20209;-83
2021/10/16 10:37:47;;;;;;;11.48;3.65;;;15.60;52.20;;;;;;5045374;28;20180;-84
2021/10/16 10:40:25;;;;;;;5.47;2.97;;;15.50;49.50;;;;;;5047050;28;20200;-84
2021/10/16 10:42:56;;;;;;;6.32;3.22;;;15.50;49.70;;;;;;5049065;28;20174;-84
2021/10/16 10:45:38;;;;;;;8.65;3.88;;;15.60;49.70;;;;;;5057140;28;20185;-84
2021/10/16 10:48:16;;;;;;;6.45;3.50;;;15.60;49.20;;;;;;5040831;28;20244;-84
2021/10/16 10:50:54;;;;;;;5.00;2.95;;;15.70;49.30;;;;;;5043582;28;20177;-84
2021/10/16 10:53:26;;;;;;;3.50;2.20;;;15.70;48.90;;;;;;5045827;28;20201;-83
2021/10/16 10:55:57;;;;;;;6.10;2.83;;;15.70;46.00;;;;;;5070225;28;20213;-84
2021/10/16 10:58:43;;;;;;;2.97;2.53;;;15.90;44.70;;;;;;5059706;28;20208;-84
2021/10/16 11:01:09;;;;;;;11.57;4.05;;;16.00;44.40;;;;;;5056706;28;20186;-83
2021/10/16 11:03:35;;;;;;;5.20;2.97;;;16.10;44.80;;;;;;5041055;28;20202;-84
2021/10/16 11:06:10;;;;;;;6.70;2.05;;;16.40;43.90;;;;;;5037561;28;20189;-83
2021/10/16 11:08:36;;;;;;;2.50;2.10;;;16.50;41.40;;;;;;5043683;28;20439;-84
2021/10/16 11:11:03;;;;;;;4.43;3.15;;;16.80;40.50;;;;;;5043847;28;20291;-84
2021/10/16 11:13:33;;;;;;;8.38;3.08;;;16.90;40.20;;;;;;5033971;28;20225;-84
2021/10/16 11:16:01;;;;;;;7.90;2.30;;;16.60;38.00;;;;;;5023689;28;20563;-84
2021/10/16 11:18:27;;;;;;;6.55;2.17;;;16.60;37.90;;;;;;5008490;28;20216;-84
2021/10/16 11:20:54;;;;;;;6.65;2.75;;;16.40;37.40;;;;;;5024520;28;20218;-84
2021/10/16 11:23:22;;;;;;;11.52;3.55;;;16.20;37.50;;;;;;5023850;28;20563;-84
2021/10/16 11:26:02;;;;;;;6.18;2.83;;;16.10;37.20;;;;;;5040916;28;20188;-84
2021/10/16 11:28:30;;;;;;;4.60;2.13;;;16.00;38.20;;;;;;5040534;28;20570;-86
2021/10/16 11:30:57;;;;;;;6.32;2.88;;;16.00;39.50;;;;;;5035883;28;20181;-84
2021/10/16 11:33:25;;;;;;;5.03;2.60;;;16.00;40.00;;;;;;5040008;28;20197;-84
2021/10/16 11:35:57;;;;;;;4.40;2.20;;;15.80;39.50;;;;;;5038848;28;20181;-84
2021/10/16 11:38:29;;;;;;;9.45;2.78;;;15.70;39.50;;;;;;5041847;28;20185;-84
2021/10/16 11:40:56;;;;;;;3.25;2.17;;;15.80;39.80;;;;;;5060423;28;20706;-84
2021/10/16 11:43:31;;;;;;;7.47;2.40;;;15.80;40.10;;;;;;5039524;28;20296;-85
2021/10/16 11:46:02;;;;;;;5.32;2.65;;;15.80;39.00;;;;;;5038244;28;20216;-85
2021/10/16 11:48:29;;;;;;;2.75;1.98;;;15.70;38.40;;;;;;5039927;28;20198;-85
2021/10/16 11:51:06;;;;;;;10.48;2.75;;;15.80;38.50;;;;;;5038324;28;20228;-85
2021/10/16 11:53:34;;;;;;;7.53;3.05;;;16.00;39.50;;;;;;5041369;28;20601;-84
2021/10/16 11:56:06;;;;;;;8.05;2.58;;;15.80;39.70;;;;;;5038954;28;20170;-85
2021/10/16 11:58:34;;;;;;;3.70;2.35;;;15.90;40.50;;;;;;5022954;28;20182;-85
2021/10/16 12:01:05;;;;;;;9.07;2.38;;;15.90;39.80;;;;;;5042234;28;20189;-85
2021/10/16 12:03:40;;;;;;;3.78;2.40;;;15.90;40.10;;;;;;5041045;28;20205;-85
2021/10/16 12:06:08;;;;;;;8.32;3.00;;;16.00;39.10;;;;;;5025704;28;20184;-84
2021/10/16 12:08:43;;;;;;;11.00;3.40;;;15.80;39.10;;;;;;5027161;28;20209;-84
2021/10/16 12:11:17;;;;;;;7.25;2.97;;;16.00;39.60;;;;;;5026281;28;20173;-84
2021/10/16 12:13:54;;;;;;;4.45;2.80;;;16.00;39.70;;;;;;5061177;28;20201;-85
2021/10/16 12:16:21;;;;;;;5.30;2.28;;;16.00;39.80;;;;;;5060374;28;20162;-84
2021/10/16 12:19:02;;;;;;;3.08;2.20;;;16.10;39.80;;;;;;5040658;28;20191;-85
2021/10/16 12:21:32;;;;;;;5.78;1.95;;;16.10;39.70;;;;;;5058115;28;20647;-84
2021/10/16 12:24:02;;;;;;;6.00;2.10;;;16.10;39.60;;;;;;5040826;28;20205;-84
2021/10/16 12:26:35;;;;;;;9.70;3.05;;;16.20;39.50;;;;;;5038370;28;20549;-84
2021/10/16 12:29:07;;;;;;;4.00;2.15;;;16.20;38.60;;;;;;5029967;28;20170;-84
2021/10/16 12:31:45;;;;;;;3.58;2.38;;;15.90;37.90;;;;;;5016684;28;20177;-84
2021/10/16 12:34:30;;;;;;;10.65;3.00;;;15.70;38.80;;;;;;5058090;28;20193;-84
2021/10/16 12:37:05;;;;;;;4.45;2.75;;;15.90;39.90;;;;;;5034071;28;20285;-84
2021/10/16 12:39:35;;;;;;;5.10;2.75;;;15.80;38.80;;;;;;5040301;28;20271;-84
2021/10/16 12:42:07;;;;;;;6.13;2.60;;;15.80;38.60;;;;;;5043973;28;20178;-85
2021/10/16 12:44:42;;;;;;;3.58;2.58;;;16.00;39.00;;;;;;5043517;28;20257;-83